createdAt,value
2023-04-18T00:00:21.640Z,1018.58
2023-04-18T00:01:21.600Z,1018.60
2023-04-18T00:02:21.645Z,1018.53
2023-04-18T00:03:21.848Z,1018.54
2023-04-18T00:04:22.083Z,1018.52
2023-04-18T00:05:21.640Z,1018.49
2023-04-18T00:06:21.576Z,1018.52
2023-04-18T00:07:21.512Z,1018.46
2023-04-18T00:08:21.516Z,1018.48
2023-04-18T00:09:21.501Z,1018.47
2023-04-18T00:10:21.464Z,1018.50
2023-04-18T00:11:21.545Z,1018.46
2023-04-18T00:12:21.786Z,1018.46
2023-04-18T00:13:21.574Z,1018.46
2023-04-18T00:14:21.439Z,1018.42
2023-04-18T00:15:21.405Z,1018.36
2023-04-18T00:16:21.433Z,1018.39
2023-04-18T00:17:21.396Z,1018.37
2023-04-18T00:18:21.366Z,1018.39
2023-04-18T00:19:21.390Z,1018.39
2023-04-18T00:20:21.438Z,1018.41
2023-04-18T00:21:21.347Z,1018.38
2023-04-18T00:22:21.363Z,1018.40
2023-04-18T00:23:21.364Z,1018.39
2023-04-18T00:24:21.307Z,1018.39
2023-04-18T00:25:21.300Z,1018.39
2023-04-18T00:26:21.287Z,1018.43
2023-04-18T00:27:21.269Z,1018.44
2023-04-18T00:28:21.278Z,1018.43
2023-04-18T00:29:21.455Z,1018.40
2023-04-18T00:30:21.230Z,1018.40
2023-04-18T00:31:21.323Z,1018.40
2023-04-18T00:32:21.273Z,1018.43
2023-04-18T00:33:21.216Z,1018.40
2023-04-18T00:34:21.194Z,1018.42
2023-04-18T00:35:21.201Z,1018.44
2023-04-18T00:36:21.200Z,1018.51
2023-04-18T00:37:21.178Z,1018.48
2023-04-18T00:38:21.164Z,1018.45
2023-04-18T00:39:21.145Z,1018.45
2023-04-18T00:40:21.139Z,1018.47
2023-04-18T00:41:21.126Z,1018.47
2023-04-18T00:42:21.101Z,1018.42
2023-04-18T00:43:21.111Z,1018.44
2023-04-18T00:44:21.071Z,1018.42
2023-04-18T00:45:21.089Z,1018.41
2023-04-18T00:46:21.094Z,1018.42
2023-04-18T00:47:21.101Z,1018.45
2023-04-18T00:48:21.046Z,1018.48
2023-04-18T00:49:21.028Z,1018.48
2023-04-18T00:50:21.038Z,1018.45
2023-04-18T00:51:21.035Z,1018.47
2023-04-18T00:52:21.024Z,1018.45
2023-04-18T00:53:20.985Z,1018.51
2023-04-18T00:54:21.010Z,1018.40
2023-04-18T00:55:20.986Z,1018.46
2023-04-18T00:56:20.980Z,1018.46
2023-04-18T00:57:20.954Z,1018.44
2023-04-18T00:58:20.961Z,1018.45
2023-04-18T00:59:20.922Z,1018.46
2023-04-18T01:00:21.180Z,1018.51
2023-04-18T01:01:20.920Z,1018.51
2023-04-18T01:02:21.133Z,1018.46
2023-04-18T01:03:20.974Z,1018.46
2023-04-18T01:04:20.966Z,1018.48
2023-04-18T01:05:20.891Z,1018.49
2023-04-18T01:06:20.869Z,1018.51
2023-04-18T01:07:20.842Z,1018.50
2023-04-18T01:08:20.815Z,1018.50
2023-04-18T01:09:32.648Z,1018.41
2023-04-18T01:10:22.574Z,1018.44
2023-04-18T01:11:20.830Z,1018.43
2023-04-18T01:12:20.797Z,1018.45
2023-04-18T01:13:20.773Z,1018.44
2023-04-18T01:14:20.799Z,1018.41
2023-04-18T01:15:20.767Z,1018.43
2023-04-18T01:16:20.862Z,1018.48
2023-04-18T01:17:20.798Z,1018.44
2023-04-18T01:18:20.759Z,1018.48
2023-04-18T01:19:20.726Z,1018.48
2023-04-18T01:20:20.715Z,1018.48
2023-04-18T01:21:20.691Z,1018.50
2023-04-18T01:22:30.733Z,1018.48
2023-04-18T01:23:20.666Z,1018.49
2023-04-18T01:24:20.646Z,1018.50
2023-04-18T01:25:30.664Z,1018.48
2023-04-18T01:26:20.635Z,1018.51
2023-04-18T01:27:20.623Z,1018.50
2023-04-18T01:28:20.639Z,1018.45
2023-04-18T01:29:20.635Z,1018.46
2023-04-18T01:30:20.601Z,1018.51
2023-04-18T01:31:20.951Z,1018.44
2023-04-18T01:32:20.792Z,1018.49
2023-04-18T01:33:20.596Z,1018.46
2023-04-18T01:34:20.577Z,1018.48
2023-04-18T01:35:20.548Z,1018.49
2023-04-18T01:36:20.559Z,1018.47
2023-04-18T01:37:20.540Z,1018.48
2023-04-18T01:38:20.548Z,1018.47
2023-04-18T01:39:20.506Z,1018.49
2023-04-18T01:40:20.507Z,1018.54
2023-04-18T01:41:20.479Z,1018.51
2023-04-18T01:42:20.481Z,1018.55
2023-04-18T01:43:20.461Z,1018.51
2023-04-18T01:44:20.474Z,1018.49
2023-04-18T01:45:20.464Z,1018.53
2023-04-18T01:46:20.454Z,1018.49
2023-04-18T01:47:20.428Z,1018.49
2023-04-18T01:48:20.426Z,1018.48
2023-04-18T01:49:20.395Z,1018.47
2023-04-18T01:50:20.409Z,1018.46
2023-04-18T01:51:20.404Z,1018.47
2023-04-18T01:52:20.375Z,1018.47
2023-04-18T01:53:20.336Z,1018.47
2023-04-18T01:54:20.373Z,1018.47
2023-04-18T01:55:20.325Z,1018.49
2023-04-18T01:56:20.363Z,1018.45
2023-04-18T01:57:20.333Z,1018.47
2023-04-18T01:58:20.324Z,1018.49
2023-04-18T01:59:20.334Z,1018.49
2023-04-18T02:00:20.278Z,1018.47
2023-04-18T02:01:20.443Z,1018.51
2023-04-18T02:02:20.526Z,1018.53
2023-04-18T02:03:20.489Z,1018.44
2023-04-18T02:04:21.193Z,1018.47
2023-04-18T02:05:20.252Z,1018.48
2023-04-18T02:06:20.232Z,1018.52
2023-04-18T02:07:20.209Z,1018.52
2023-04-18T02:08:20.202Z,1018.48
2023-04-18T02:09:20.200Z,1018.55
2023-04-18T02:10:20.212Z,1018.57
2023-04-18T02:11:20.174Z,1018.58
2023-04-18T02:12:20.160Z,1018.54
2023-04-18T02:13:20.146Z,1018.56
2023-04-18T02:14:20.163Z,1018.46
2023-04-18T02:15:20.121Z,1018.52
2023-04-18T02:16:20.923Z,1018.55
2023-04-18T02:17:20.140Z,1018.56
2023-04-18T02:18:20.118Z,1018.57
2023-04-18T02:19:20.088Z,1018.55
2023-04-18T02:20:20.085Z,1018.52
2023-04-18T02:21:20.084Z,1018.55
2023-04-18T02:22:20.077Z,1018.53
2023-04-18T02:23:20.033Z,1018.54
2023-04-18T02:24:20.069Z,1018.52
2023-04-18T02:25:20.024Z,1018.55
2023-04-18T02:26:20.019Z,1018.55
2023-04-18T02:27:19.997Z,1018.50
2023-04-18T02:28:19.995Z,1018.52
2023-04-18T02:29:19.988Z,1018.54
2023-04-18T02:30:19.966Z,1018.52
2023-04-18T02:31:19.981Z,1018.54
2023-04-18T02:32:20.011Z,1018.50
2023-04-18T02:33:19.991Z,1018.59
2023-04-18T02:34:19.932Z,1018.52
2023-04-18T02:35:19.900Z,1018.56
2023-04-18T02:36:19.917Z,1018.56
2023-04-18T02:37:19.900Z,1018.58
2023-04-18T02:38:19.892Z,1018.55
2023-04-18T02:39:19.871Z,1018.57
2023-04-18T02:40:19.893Z,1018.60
2023-04-18T02:41:19.859Z,1018.55
2023-04-18T02:42:19.871Z,1018.65
2023-04-18T02:43:19.827Z,1018.61
2023-04-18T02:44:19.836Z,1018.62
2023-04-18T02:45:19.804Z,1018.61
2023-04-18T02:46:19.818Z,1018.56
2023-04-18T02:47:19.795Z,1018.65
2023-04-18T02:48:19.852Z,1018.67
2023-04-18T02:49:19.767Z,1018.68
2023-04-18T02:50:19.778Z,1018.72
2023-04-18T02:51:19.742Z,1018.69
2023-04-18T02:52:19.762Z,1018.75
2023-04-18T02:53:19.712Z,1018.72
2023-04-18T02:54:19.715Z,1018.68
2023-04-18T02:55:19.694Z,1018.71
2023-04-18T02:56:19.709Z,1018.65
2023-04-18T02:57:19.692Z,1018.63
2023-04-18T02:58:19.691Z,1018.58
2023-04-18T02:59:19.665Z,1018.58
2023-04-18T03:00:19.678Z,1018.57
2023-04-18T03:01:19.684Z,1018.55
2023-04-18T03:02:19.681Z,1018.64
2023-04-18T03:03:19.870Z,1018.64
2023-04-18T03:04:19.698Z,1018.67
2023-04-18T03:05:19.647Z,1018.68
2023-04-18T03:06:19.603Z,1018.72
2023-04-18T03:07:19.590Z,1018.65
2023-04-18T03:08:19.587Z,1018.64
2023-04-18T03:09:19.571Z,1018.66
2023-04-18T03:10:19.591Z,1018.57
2023-04-18T03:11:19.524Z,1018.60
2023-04-18T03:12:19.546Z,1018.60
2023-04-18T03:13:19.490Z,1018.58
2023-04-18T03:14:19.509Z,1018.64
2023-04-18T03:15:19.493Z,1018.59
2023-04-18T03:16:19.515Z,1018.61
2023-04-18T03:17:19.477Z,1018.65
2023-04-18T03:18:19.476Z,1018.67
2023-04-18T03:19:19.436Z,1018.71
2023-04-18T03:20:19.466Z,1018.68
2023-04-18T03:21:19.428Z,1018.66
2023-04-18T03:22:19.461Z,1018.67
2023-04-18T03:23:19.399Z,1018.74
2023-04-18T03:24:19.416Z,1018.64
2023-04-18T03:25:19.372Z,1018.67
2023-04-18T03:26:19.384Z,1018.65
2023-04-18T03:27:19.385Z,1018.66
2023-04-18T03:28:19.366Z,1018.65
2023-04-18T03:29:19.338Z,1018.70
2023-04-18T03:30:19.354Z,1018.70
2023-04-18T03:31:19.389Z,1018.66
2023-04-18T03:32:19.386Z,1018.64
2023-04-18T03:33:19.317Z,1018.66
2023-04-18T03:34:19.364Z,1018.68
2023-04-18T03:35:19.290Z,1018.68
2023-04-18T03:36:19.284Z,1018.70
2023-04-18T03:37:19.248Z,1018.72
2023-04-18T03:38:19.272Z,1018.75
2023-04-18T03:39:19.235Z,1018.77
2023-04-18T03:40:19.251Z,1018.79
2023-04-18T03:41:19.211Z,1018.78
2023-04-18T03:42:19.222Z,1018.79
2023-04-18T03:43:19.202Z,1018.80
2023-04-18T03:44:19.185Z,1018.80
2023-04-18T03:45:19.184Z,1018.76
2023-04-18T03:46:19.230Z,1018.81
2023-04-18T03:47:19.174Z,1018.84
2023-04-18T03:48:19.808Z,1018.82
2023-04-18T03:49:19.108Z,1018.82
2023-04-18T03:50:19.169Z,1018.83
2023-04-18T03:51:19.129Z,1018.84
2023-04-18T03:52:19.082Z,1018.86
2023-04-18T03:53:19.079Z,1018.87
2023-04-18T03:54:19.107Z,1018.84
2023-04-18T03:55:19.092Z,1018.86
2023-04-18T03:56:19.070Z,1018.81
2023-04-18T03:57:19.074Z,1018.82
2023-04-18T03:58:19.043Z,1018.85
2023-04-18T03:59:19.049Z,1018.82
2023-04-18T04:00:19.081Z,1018.87
2023-04-18T04:01:18.989Z,1018.91
2023-04-18T04:02:19.257Z,1018.86
2023-04-18T04:03:19.073Z,1018.91
2023-04-18T04:04:19.186Z,1018.91
2023-04-18T04:05:19.077Z,1018.86
2023-04-18T04:06:18.974Z,1018.91
2023-04-18T04:07:18.928Z,1018.92
2023-04-18T04:08:18.949Z,1018.91
2023-04-18T04:09:18.934Z,1018.93
2023-04-18T04:10:18.943Z,1018.95
2023-04-18T04:11:18.890Z,1018.88
2023-04-18T04:12:18.906Z,1018.90
2023-04-18T04:13:18.876Z,1018.91
2023-04-18T04:14:18.870Z,1018.87
2023-04-18T04:15:18.967Z,1018.92
2023-04-18T04:16:18.954Z,1018.95
2023-04-18T04:17:18.831Z,1018.89
2023-04-18T04:18:18.837Z,1018.84
2023-04-18T04:19:18.826Z,1018.92
2023-04-18T04:20:18.807Z,1018.94
2023-04-18T04:21:21.046Z,1018.93
2023-04-18T04:22:18.786Z,1018.92
2023-04-18T04:23:18.776Z,1018.88
2023-04-18T04:24:18.793Z,1018.88
2023-04-18T04:25:18.746Z,1018.90
2023-04-18T04:26:18.747Z,1018.87
2023-04-18T04:27:18.801Z,1018.89
2023-04-18T04:28:18.740Z,1018.92
2023-04-18T04:29:18.699Z,1018.88
2023-04-18T04:30:18.684Z,1018.94
2023-04-18T04:31:18.762Z,1018.93
2023-04-18T04:32:18.700Z,1018.94
2023-04-18T04:33:18.661Z,1018.95
2023-04-18T04:34:18.664Z,1018.90
2023-04-18T04:35:18.628Z,1018.88
2023-04-18T04:36:19.138Z,1018.93
2023-04-18T04:37:18.608Z,1018.93
2023-04-18T04:38:18.631Z,1018.94
2023-04-18T04:39:18.616Z,1018.92
2023-04-18T04:40:18.619Z,1018.97
2023-04-18T04:41:18.578Z,1018.92
2023-04-18T04:42:18.563Z,1018.99
2023-04-18T04:43:18.539Z,1018.93
2023-04-18T04:44:18.564Z,1018.96
2023-04-18T04:45:18.538Z,1018.95
2023-04-18T04:46:18.654Z,1018.98
2023-04-18T04:47:18.526Z,1018.96
2023-04-18T04:48:18.500Z,1019.00
2023-04-18T04:49:18.458Z,1019.04
2023-04-18T04:50:18.502Z,1019.03
2023-04-18T04:51:18.480Z,1018.99
2023-04-18T04:52:18.478Z,1019.04
2023-04-18T04:53:18.475Z,1019.04
2023-04-18T04:54:18.483Z,1019.03
2023-04-18T04:55:18.491Z,1019.06
2023-04-18T04:56:18.411Z,1019.01
2023-04-18T04:57:18.421Z,1019.01
2023-04-18T04:58:18.378Z,1019.00
2023-04-18T04:59:18.402Z,1019.09
2023-04-18T05:00:18.389Z,1019.11
2023-04-18T05:01:18.427Z,1019.13
2023-04-18T05:02:18.372Z,1019.19
2023-04-18T05:03:18.539Z,1019.19
2023-04-18T05:04:18.727Z,1019.19
2023-04-18T05:05:18.310Z,1019.18
2023-04-18T05:06:18.295Z,1019.20
2023-04-18T05:07:18.460Z,1019.20
2023-04-18T05:08:18.344Z,1019.14
2023-04-18T05:09:18.284Z,1019.23
2023-04-18T05:10:18.259Z,1019.22
2023-04-18T05:11:18.256Z,1019.27
2023-04-18T05:12:18.241Z,1019.28
2023-04-18T05:13:18.246Z,1019.30
2023-04-18T05:14:18.220Z,1019.28
2023-04-18T05:15:18.200Z,1019.24
2023-04-18T05:16:18.211Z,1019.22
2023-04-18T05:17:18.189Z,1019.24
2023-04-18T05:18:18.160Z,1019.30
2023-04-18T05:19:18.194Z,1019.32
2023-04-18T05:20:18.163Z,1019.27
2023-04-18T05:21:18.178Z,1019.32
2023-04-18T05:22:18.124Z,1019.30
2023-04-18T05:23:18.153Z,1019.27
2023-04-18T05:24:18.142Z,1019.30
2023-04-18T05:25:18.106Z,1019.33
2023-04-18T05:26:18.160Z,1019.33
2023-04-18T05:27:18.292Z,1019.32
2023-04-18T05:28:18.066Z,1019.30
2023-04-18T05:29:18.071Z,1019.33
2023-04-18T05:30:18.048Z,1019.32
2023-04-18T05:31:18.075Z,1019.33
2023-04-18T05:32:18.018Z,1019.28
2023-04-18T05:33:18.035Z,1019.30
2023-04-18T05:34:17.994Z,1019.31
2023-04-18T05:35:18.002Z,1019.32
2023-04-18T05:36:17.983Z,1019.38
2023-04-18T05:37:18.003Z,1019.36
2023-04-18T05:38:18.003Z,1019.37
2023-04-18T05:39:17.936Z,1019.40
2023-04-18T05:40:17.922Z,1019.40
2023-04-18T05:41:17.936Z,1019.40
2023-04-18T05:42:17.917Z,1019.47
2023-04-18T05:43:17.927Z,1019.44
2023-04-18T05:44:18.363Z,1019.47
2023-04-18T05:45:17.887Z,1019.47
2023-04-18T05:46:17.943Z,1019.43
2023-04-18T05:47:17.866Z,1019.48
2023-04-18T05:48:17.854Z,1019.47
2023-04-18T05:49:17.865Z,1019.45
2023-04-18T05:50:17.838Z,1019.43
2023-04-18T05:51:17.854Z,1019.39
2023-04-18T05:52:17.820Z,1019.44
2023-04-18T05:53:17.818Z,1019.41
2023-04-18T05:54:17.825Z,1019.42
2023-04-18T05:55:17.797Z,1019.39
2023-04-18T05:56:17.784Z,1019.44
2023-04-18T05:57:17.766Z,1019.42
2023-04-18T05:58:17.747Z,1019.46
2023-04-18T05:59:17.783Z,1019.44
2023-04-18T06:00:17.774Z,1019.43
2023-04-18T06:01:17.749Z,1019.47
2023-04-18T06:02:17.768Z,1019.49
2023-04-18T06:03:17.946Z,1019.49
2023-04-18T06:04:18.019Z,1019.50
2023-04-18T06:05:18.125Z,1019.50
2023-04-18T06:06:17.653Z,1019.49
2023-04-18T06:07:17.680Z,1019.46
2023-04-18T06:08:17.636Z,1019.48
2023-04-18T06:09:17.713Z,1019.50
2023-04-18T06:10:17.652Z,1019.51
2023-04-18T06:11:17.621Z,1019.51
2023-04-18T06:12:17.619Z,1019.50
2023-04-18T06:13:17.592Z,1019.46
2023-04-18T06:14:17.567Z,1019.51
2023-04-18T06:15:17.599Z,1019.45
2023-04-18T06:16:17.702Z,1019.51
2023-04-18T06:17:17.560Z,1019.52
2023-04-18T06:18:17.537Z,1019.55
2023-04-18T06:19:17.562Z,1019.50
2023-04-18T06:20:17.537Z,1019.51
2023-04-18T06:21:17.504Z,1019.50
2023-04-18T06:22:17.497Z,1019.54
2023-04-18T06:23:17.517Z,1019.57
2023-04-18T06:24:17.485Z,1019.58
2023-04-18T06:25:17.929Z,1019.54
2023-04-18T06:26:17.459Z,1019.59
2023-04-18T06:27:28.310Z,1019.59
2023-04-18T06:28:18.432Z,1019.59
2023-04-18T06:29:17.532Z,1019.60
2023-04-18T06:30:17.411Z,1019.62
2023-04-18T06:31:17.467Z,1019.59
2023-04-18T06:32:17.406Z,1019.59
2023-04-18T06:33:17.399Z,1019.63
2023-04-18T06:34:17.359Z,1019.62
2023-04-18T06:35:17.374Z,1019.62
2023-04-18T06:36:17.337Z,1019.59
2023-04-18T06:37:17.363Z,1019.55
2023-04-18T06:38:17.340Z,1019.66
2023-04-18T06:39:17.336Z,1019.63
2023-04-18T06:40:17.938Z,1019.60
2023-04-18T06:41:17.314Z,1019.61
2023-04-18T06:42:17.286Z,1019.65
2023-04-18T06:43:17.295Z,1019.66
2023-04-18T06:44:17.273Z,1019.63
2023-04-18T06:45:17.279Z,1019.59
2023-04-18T06:46:17.267Z,1019.56
2023-04-18T06:47:17.232Z,1019.58
2023-04-18T06:48:17.214Z,1019.55
2023-04-18T06:49:17.222Z,1019.55
2023-04-18T06:50:17.192Z,1019.57
2023-04-18T06:51:17.192Z,1019.55
2023-04-18T06:52:17.174Z,1019.53
2023-04-18T06:53:17.185Z,1019.56
2023-04-18T06:54:17.152Z,1019.57
2023-04-18T06:55:17.156Z,1019.64
2023-04-18T06:56:17.129Z,1019.71
2023-04-18T06:57:17.123Z,1019.62
2023-04-18T06:58:17.151Z,1019.68
2023-04-18T06:59:17.114Z,1019.72
2023-04-18T07:00:17.121Z,1019.76
2023-04-18T07:01:17.166Z,1019.73
2023-04-18T07:02:17.123Z,1019.67
2023-04-18T07:03:17.183Z,1019.76
2023-04-18T07:04:17.427Z,1019.77
2023-04-18T07:05:17.046Z,1019.76
2023-04-18T07:06:17.031Z,1019.73
2023-04-18T07:07:17.040Z,1019.76
2023-04-18T07:08:17.001Z,1019.75
2023-04-18T07:09:17.017Z,1019.76
2023-04-18T07:10:16.968Z,1019.78
2023-04-18T07:11:17.040Z,1019.75
2023-04-18T07:12:16.946Z,1019.74
2023-04-18T07:13:16.971Z,1019.79
2023-04-18T07:14:17.094Z,1019.71
2023-04-18T07:15:16.930Z,1019.73
2023-04-18T07:16:16.993Z,1019.68
2023-04-18T07:17:16.947Z,1019.71
2023-04-18T07:18:30.279Z,1019.76
2023-04-18T07:19:17.896Z,1019.73
2023-04-18T07:20:16.906Z,1019.76
2023-04-18T07:21:16.906Z,1019.79
2023-04-18T07:22:16.870Z,1019.75
2023-04-18T07:23:16.866Z,1019.79
2023-04-18T07:24:16.979Z,1019.76
2023-04-18T07:25:16.848Z,1019.81
2023-04-18T07:26:31.556Z,1019.87
2023-04-18T07:27:16.815Z,1019.81
2023-04-18T07:28:16.801Z,1019.90
2023-04-18T07:29:16.805Z,1019.87
2023-04-18T07:30:16.781Z,1019.91
2023-04-18T07:31:16.897Z,1019.96
2023-04-18T07:32:16.759Z,1019.98
2023-04-18T07:33:16.796Z,1019.94
2023-04-18T07:34:16.765Z,1019.93
2023-04-18T07:35:16.743Z,1019.99
2023-04-18T07:36:16.720Z,1019.92
2023-04-18T07:37:16.739Z,1019.99
2023-04-18T07:38:16.686Z,1020.00
2023-04-18T07:39:16.724Z,1019.94
2023-04-18T07:40:16.700Z,1019.97
2023-04-18T07:41:16.671Z,1019.96
2023-04-18T07:42:16.850Z,1019.97
2023-04-18T07:43:16.670Z,1019.93
2023-04-18T07:44:16.652Z,1019.89
2023-04-18T07:45:16.592Z,1019.91
2023-04-18T07:46:16.676Z,1019.95
2023-04-18T07:47:16.618Z,1019.99
2023-04-18T07:48:16.603Z,1019.98
2023-04-18T07:49:16.751Z,1019.93
2023-04-18T07:50:16.670Z,1019.98
2023-04-18T07:51:16.614Z,1019.91
2023-04-18T07:52:16.567Z,1019.90
2023-04-18T07:53:16.536Z,1019.95
2023-04-18T07:54:16.515Z,1019.92
2023-04-18T07:55:16.573Z,1019.98
2023-04-18T07:56:16.494Z,1019.94
2023-04-18T07:57:16.506Z,1019.95
2023-04-18T07:58:16.537Z,1019.96
2023-04-18T07:59:16.755Z,1019.90
2023-04-18T08:00:16.465Z,1019.97
2023-04-18T08:01:16.458Z,1019.97
2023-04-18T08:02:16.531Z,1019.95
2023-04-18T08:03:16.666Z,1019.96
2023-04-18T08:04:16.639Z,1019.92
2023-04-18T08:05:16.550Z,1019.96
2023-04-18T08:06:16.420Z,1019.96
2023-04-18T08:07:16.401Z,1019.94
2023-04-18T08:08:16.375Z,1019.90
2023-04-18T08:09:16.547Z,1019.92
2023-04-18T08:10:16.392Z,1019.98
2023-04-18T08:11:16.326Z,1019.97
2023-04-18T08:12:16.324Z,1019.92
2023-04-18T08:13:16.389Z,1020.01
2023-04-18T08:14:16.376Z,1019.98
2023-04-18T08:15:16.340Z,1020.01
2023-04-18T08:16:17.521Z,1019.95
2023-04-18T08:17:16.271Z,1019.97
2023-04-18T08:18:16.299Z,1019.99
2023-04-18T08:19:16.476Z,1020.00
2023-04-18T08:20:16.223Z,1020.05
2023-04-18T08:21:16.229Z,1020.06
2023-04-18T08:22:16.220Z,1020.05
2023-04-18T08:23:16.248Z,1020.11
2023-04-18T08:24:16.197Z,1020.08
2023-04-18T08:25:16.222Z,1020.11
2023-04-18T08:26:16.196Z,1020.15
2023-04-18T08:27:16.211Z,1020.15
2023-04-18T08:28:16.156Z,1020.19
2023-04-18T08:29:16.227Z,1020.17
2023-04-18T08:30:16.205Z,1020.19
2023-04-18T08:31:16.218Z,1020.19
2023-04-18T08:32:16.122Z,1020.15
2023-04-18T08:33:16.146Z,1020.16
2023-04-18T08:34:16.114Z,1020.16
2023-04-18T08:35:16.142Z,1020.12
2023-04-18T08:36:16.113Z,1020.11
2023-04-18T08:37:16.053Z,1020.18
2023-04-18T08:38:16.039Z,1020.20
2023-04-18T08:39:16.233Z,1020.18
2023-04-18T08:40:16.041Z,1020.14
2023-04-18T08:41:16.023Z,1020.16
2023-04-18T08:42:15.995Z,1020.18
2023-04-18T08:43:16.020Z,1020.22
2023-04-18T08:44:16.184Z,1020.22
2023-04-18T08:45:15.994Z,1020.18
2023-04-18T08:46:15.984Z,1020.19
2023-04-18T08:47:15.995Z,1020.20
2023-04-18T08:48:15.929Z,1020.19
2023-04-18T08:49:16.223Z,1020.17
2023-04-18T08:50:15.905Z,1020.18
2023-04-18T08:51:15.925Z,1020.13
2023-04-18T08:52:15.936Z,1020.13
2023-04-18T08:53:15.892Z,1020.16
2023-04-18T08:54:15.853Z,1020.19
2023-04-18T08:55:15.931Z,1020.11
2023-04-18T08:56:15.950Z,1020.10
2023-04-18T08:57:15.877Z,1020.09
2023-04-18T08:58:15.846Z,1020.12
2023-04-18T08:59:16.077Z,1020.12
2023-04-18T09:00:15.884Z,1020.06
2023-04-18T09:01:15.888Z,1020.07
2023-04-18T09:02:15.840Z,1020.14
2023-04-18T09:03:15.851Z,1020.11
2023-04-18T09:04:15.842Z,1020.14
2023-04-18T09:05:15.784Z,1020.11
2023-04-18T09:06:15.739Z,1020.03
2023-04-18T09:07:15.769Z,1020.10
2023-04-18T09:08:15.737Z,1020.08
2023-04-18T09:09:15.877Z,1020.11
2023-04-18T09:10:15.693Z,1020.07
2023-04-18T09:11:15.706Z,1020.07
2023-04-18T09:12:15.700Z,1020.00
2023-04-18T09:13:15.682Z,1020.01
2023-04-18T09:14:15.689Z,1020.00
2023-04-18T09:15:15.699Z,1020.02
2023-04-18T09:16:15.697Z,1020.04
2023-04-18T09:17:15.628Z,1020.03
2023-04-18T09:18:15.616Z,1020.03
2023-04-18T09:19:15.760Z,1020.06
2023-04-18T09:20:15.655Z,1020.03
2023-04-18T09:21:15.573Z,1020.04
2023-04-18T09:22:15.589Z,1020.07
2023-04-18T09:23:15.567Z,1020.04
2023-04-18T09:24:15.570Z,1020.10
2023-04-18T09:25:15.549Z,1020.11
2023-04-18T09:26:15.554Z,1020.06
2023-04-18T09:27:15.570Z,1020.09
2023-04-18T09:28:15.501Z,1020.10
2023-04-18T09:29:15.626Z,1020.10
2023-04-18T09:30:15.496Z,1020.12
2023-04-18T09:31:15.644Z,1020.10
2023-04-18T09:32:15.482Z,1020.10
2023-04-18T09:33:15.448Z,1020.11
2023-04-18T09:34:15.628Z,1020.11
2023-04-18T09:35:15.448Z,1020.11
2023-04-18T09:36:15.483Z,1020.15
2023-04-18T09:37:15.476Z,1020.11
2023-04-18T09:38:15.418Z,1020.11
2023-04-18T09:39:15.630Z,1020.16
2023-04-18T09:40:15.363Z,1020.16
2023-04-18T09:41:15.409Z,1020.16
2023-04-18T09:42:15.380Z,1020.15
2023-04-18T09:43:15.346Z,1020.11
2023-04-18T09:44:15.815Z,1020.10
2023-04-18T09:45:15.311Z,1020.07
2023-04-18T09:46:25.283Z,1020.05
2023-04-18T09:47:15.281Z,1020.06
2023-04-18T09:48:17.051Z,1020.04
2023-04-18T09:49:16.189Z,1020.03
2023-04-18T09:50:15.268Z,1020.02
2023-04-18T09:51:15.249Z,1020.03
2023-04-18T09:52:15.257Z,1019.99
2023-04-18T09:53:15.227Z,1019.98
2023-04-18T09:54:15.455Z,1020.05
2023-04-18T09:55:15.191Z,1020.00
2023-04-18T09:56:15.224Z,1019.98
2023-04-18T09:57:15.173Z,1019.92
2023-04-18T09:58:15.180Z,1019.94
2023-04-18T09:59:15.393Z,1019.94
2023-04-18T10:00:15.260Z,1019.89
2023-04-18T10:01:15.168Z,1019.92
2023-04-18T10:02:15.183Z,1019.93
2023-04-18T10:03:15.231Z,1019.95
2023-04-18T10:04:15.458Z,1019.91
2023-04-18T10:05:15.106Z,1019.94
2023-04-18T10:06:15.114Z,1019.96
2023-04-18T10:07:15.066Z,1019.96
2023-04-18T10:08:15.076Z,1020.02
2023-04-18T10:09:15.395Z,1019.96
2023-04-18T10:10:15.077Z,1019.94
2023-04-18T10:11:15.032Z,1019.94
2023-04-18T10:12:15.026Z,1019.96
2023-04-18T10:13:15.010Z,1019.93
2023-04-18T10:14:15.290Z,1019.89
2023-04-18T10:15:14.990Z,1019.91
2023-04-18T10:16:15.047Z,1019.99
2023-04-18T10:17:15.022Z,1019.94
2023-04-18T10:18:15.034Z,1019.91
2023-04-18T10:19:15.149Z,1019.89
2023-04-18T10:20:14.942Z,1019.89
2023-04-18T10:21:14.898Z,1019.89
2023-04-18T10:22:14.917Z,1019.90
2023-04-18T10:23:14.901Z,1019.89
2023-04-18T10:24:15.139Z,1019.92
2023-04-18T10:25:14.872Z,1019.98
2023-04-18T10:26:14.885Z,1019.93
2023-04-18T10:27:14.845Z,1019.84
2023-04-18T10:28:14.879Z,1019.89
2023-04-18T10:29:14.984Z,1019.88
2023-04-18T10:30:14.833Z,1019.87
2023-04-18T10:31:14.820Z,1019.90
2023-04-18T10:32:14.800Z,1019.87
2023-04-18T10:33:21.942Z,1019.91
2023-04-18T10:34:15.787Z,1019.87
2023-04-18T10:35:14.836Z,1019.91
2023-04-18T10:36:14.804Z,1019.88
2023-04-18T10:37:14.738Z,1019.88
2023-04-18T10:38:14.744Z,1019.91
2023-04-18T10:39:14.711Z,1019.98
2023-04-18T10:40:14.728Z,1019.91
2023-04-18T10:41:14.694Z,1019.93
2023-04-18T10:42:14.707Z,1019.89
2023-04-18T10:43:14.687Z,1019.87
2023-04-18T10:44:15.125Z,1019.89
2023-04-18T10:45:14.668Z,1019.88
2023-04-18T10:46:30.364Z,1019.94
2023-04-18T10:47:15.874Z,1019.96
2023-04-18T10:48:14.646Z,1019.92
2023-04-18T10:49:14.951Z,1019.92
2023-04-18T10:50:14.617Z,1019.86
2023-04-18T10:51:14.598Z,1019.91
2023-04-18T10:52:14.600Z,1019.97
2023-04-18T10:53:14.585Z,1019.91
2023-04-18T10:54:14.735Z,1019.92
2023-04-18T10:55:14.575Z,1019.86
2023-04-18T10:56:14.553Z,1019.93
2023-04-18T10:57:14.511Z,1019.96
2023-04-18T10:58:14.533Z,1019.89
2023-04-18T10:59:14.524Z,1019.83
2023-04-18T11:00:14.621Z,1019.80
2023-04-18T11:01:14.576Z,1019.81
2023-04-18T11:02:14.552Z,1019.79
2023-04-18T11:03:14.629Z,1019.74
2023-04-18T11:04:15.090Z,1019.79
2023-04-18T11:05:14.435Z,1019.78
2023-04-18T11:06:14.447Z,1019.78
2023-04-18T11:07:14.438Z,1019.67
2023-04-18T11:08:14.440Z,1019.72
2023-04-18T11:09:14.476Z,1019.71
2023-04-18T11:10:14.442Z,1019.72
2023-04-18T11:11:14.574Z,1019.73
2023-04-18T11:12:14.383Z,1019.71
2023-04-18T11:13:14.378Z,1019.69
2023-04-18T11:14:14.661Z,1019.72
2023-04-18T11:15:14.578Z,1019.72
2023-04-18T11:16:14.391Z,1019.68
2023-04-18T11:17:14.318Z,1019.49
2023-04-18T11:18:14.386Z,1019.66
2023-04-18T11:19:14.305Z,1019.64
2023-04-18T11:20:14.349Z,1019.68
2023-04-18T11:21:14.295Z,1019.69
2023-04-18T11:22:14.288Z,1019.69
2023-04-18T11:23:14.268Z,1019.67
2023-04-18T11:24:14.460Z,1019.65
2023-04-18T11:25:14.235Z,1019.65
2023-04-18T11:26:14.243Z,1019.58
2023-04-18T11:27:14.218Z,1019.67
2023-04-18T11:28:14.218Z,1019.61
2023-04-18T11:29:14.207Z,1019.54
2023-04-18T11:30:14.220Z,1019.50
2023-04-18T11:31:14.180Z,1019.52
2023-04-18T11:32:14.202Z,1019.62
2023-04-18T11:33:14.195Z,1019.57
2023-04-18T11:34:14.328Z,1019.54
2023-04-18T11:35:14.153Z,1019.55
2023-04-18T11:36:14.127Z,1019.60
2023-04-18T11:37:14.101Z,1019.55
2023-04-18T11:38:14.119Z,1019.58
2023-04-18T11:39:14.096Z,1019.62
2023-04-18T11:40:14.106Z,1019.61
2023-04-18T11:41:14.078Z,1019.60
2023-04-18T11:42:14.056Z,1019.60
2023-04-18T11:43:14.031Z,1019.60
2023-04-18T11:44:14.181Z,1019.56
2023-04-18T11:45:14.015Z,1019.56
2023-04-18T11:46:14.048Z,1019.48
2023-04-18T11:47:13.997Z,1019.53
2023-04-18T11:48:13.994Z,1019.58
2023-04-18T11:49:14.560Z,1019.56
2023-04-18T11:50:14.006Z,1019.60
2023-04-18T11:51:13.970Z,1019.49
2023-04-18T11:52:13.956Z,1019.55
2023-04-18T11:53:13.932Z,1019.56
2023-04-18T11:54:14.113Z,1019.54
2023-04-18T11:55:13.903Z,1019.47
2023-04-18T11:56:13.929Z,1019.57
2023-04-18T11:57:13.891Z,1019.51
2023-04-18T11:58:13.898Z,1019.60
2023-04-18T11:59:13.892Z,1019.52
2023-04-18T12:00:13.906Z,1019.56
2023-04-18T12:01:13.904Z,1019.64
2023-04-18T12:02:16.691Z,1019.65
2023-04-18T12:03:14.103Z,1019.59
2023-04-18T12:04:14.244Z,1019.60
2023-04-18T12:05:13.977Z,1019.58